Clintondale, NY (12515)

8:47 AM EDT on July 30, 2016 (GMT -0400)
Highgait Farm | | Change Station

Elev 715 ft 41.67 °N, 74.06 °W | Updated 7 minutes ago

Partly Cloudy
Partly Cloudy
77.5 °F
Feels Like 79 °F
N
0.0
Wind Variable Wind from NW

Today
High -- | Low -- °F
--% Chance of Precip.
Yesterday
High -- | Low -- °F
Precip. -- in
Pressure 30.01 in
Visibility 10.0 miles
Clouds Few 12000 ft
Heat Index 79 °F
Dew Point 64 °F
Humidity 64%
Rainfall 0.00 in
Snow Depth Not available.
5:49 AM 8:15 PM
Waning Crescent, 13% visible
METAR KPOU 301153Z 01006KT 10SM FEW120 22/16 A3002 RMK AO2 SLP160 70001 T02220161 10222 20189 53019
Pressure 30.01 in
Visibility 10.0 miles
Clouds Few 12000 ft
Heat Index 79 °F
Dew Point 64 °F
Humidity 64%
Rainfall 0.00 in
Snow Depth Not available.
5:49 AM 8:15 PM
Waning Crescent, 13% visible
METAR KPOU 301153Z 01006KT 10SM FEW120 22/16 A3002 RMK AO2 SLP160 70001 T02220161 10222 20189 53019

10-Day Weather Forecast

Almanac

Astronomy

Jul. 30, 2016 Rise Set
Actual Time
Civil Twilight
Nautical Twilight
Astronomical Twilight
Moon
Length of Visible Light
Length of Day
Tomorrow will be .
, % of the Moon is Illuminated

Today's Extremes

State Highs State Lows

Community

WunderPhotos

Upload Photos

1,928,545 photos uploaded!

WunderBlog® & News

Nearby

Air Quality

  Air Quality AQ Index Pollutant
Not available.

Snow Depth

Station Depth Elevation

Earthquake Activity

City Distance Mag. Time & Date
Minimum magnitude displayed is 2.5.

Coastal Water Temperatures

Place Temperature

Stations

Nearby Weather Stations

Station Location Temp. Windchill Dew Point Humidity Wind Precip. Elev Updated Type
                   

Watches & Warnings

There are currently no watches in effect.